Bookmark and Share
Track history (hours):
 

Coast

Last reported at 2012-Aug-22 21:25 UTC. Time now 2014-Apr-18 10:42 UTC.
Position N 32°20' W 009°56'.
Warning: this ship's position is years out of date!

Length 179 m; draft 7.6 m.

Type: Cargo ship. MMSI: 210353000.

NotesDate/timePositionNaut miles runAvg speedWind from/ knotsBaromVisibWave heightAir tempDewpointWater temp
2012-Aug-22 21:25N 32°20' W 009°56'1113.4
2012-Aug-22 20:33N 32°13' W 010°06'1313.2
2012-Aug-22 19:33N 32°03' W 010°17'1313.4
2012-Aug-22 18:33N 31°52' W 010°26'1413.5
2012-Aug-22 17:33N 31°41' W 010°35'1413.3
2012-Aug-22 16:32N 31°29' W 010°44'1313.0
2012-Aug-22 15:34N 31°19' W 010°52'1313.4
2012-Aug-22 14:33N 31°07' W 011°00'1413.1
2012-Aug-22 13:29N 30°56' W 011°09'3913.5
2012-Aug-22 10:35N 30°23' W 011°34'2914.2
2012-Aug-22 08:33N 29°59' W 011°53'1414.0
2012-Aug-22 07:32N 29°47' W 012°01'6913.8
2012-Aug-22 02:34N 28°49' W 012°44'2813.7
2012-Aug-22 00:30N 28°26' W 013°02'1313.6
2012-Aug-21 23:33N 28°15' W 013°10'1313.3
2012-Aug-21 22:33N 28°05' W 013°20'1312.8
2012-Aug-21 21:33N 27°56' W 013°30'1313.2
2012-Aug-21 20:33N 27°46' W 013°39'1313.5
2012-Aug-21 19:34N 27°35' W 013°49'1313.4
2012-Aug-21 18:33N 27°26' W 014°00'1413.5
2012-Aug-21 17:34N 27°16' W 014°10'1413.8
2012-Aug-21 16:33N 27°05' W 014°20'1414.1
2012-Aug-21 15:34N 26°55' W 014°31'1413.7
2012-Aug-21 14:33N 26°45' W 014°41'1413.6
2012-Aug-21 13:34N 26°35' W 014°51'1413.6
2012-Aug-21 12:34N 26°25' W 015°01'1513.3
2012-Aug-21 11:27N 26°13' W 015°12'  

Dump ship's entire track history

sailing weather and tide predictions

Coast — P3MC8 — position and weather